Time;durP1;ratioP1;P1;durP2;ratioP2;P2;SDS_P1;SDS_P2;PMS_P1;PMS_P2;Temp;Humidity;BMP_temperature;BMP_pressure;BME280_temperature;BME280_humidity;BME280_pressure;Samples;Min_cycle;Max_cycle;Signal;HPM_P1;HPM_P2
2023/03/17 00:00:41;;;;;;;15.00;14.10;;;5.40;65.90;;;;;;4974933;28;20170;-89
2023/03/17 00:03:10;;;;;;;15.90;14.53;;;5.40;65.70;;;;;;4957458;28;20234;-89
2023/03/17 00:05:35;;;;;;;15.17;14.03;;;5.40;65.60;;;;;;4957549;28;20210;-89
2023/03/17 00:08:10;;;;;;;15.53;14.43;;;5.40;65.90;;;;;;4958501;28;20171;-89
2023/03/17 00:10:36;;;;;;;15.77;14.57;;;5.40;65.70;;;;;;4958302;28;20170;-89
2023/03/17 00:13:02;;;;;;;15.83;14.63;;;5.50;66.50;;;;;;4957449;28;20228;-88
2023/03/17 00:15:28;;;;;;;15.80;14.60;;;5.40;66.20;;;;;;4974626;28;20186;-89
2023/03/17 00:17:55;;;;;;;16.23;14.83;;;5.40;66.00;;;;;;4957328;28;20221;-88
2023/03/17 00:20:31;;;;;;;15.43;14.43;;;5.50;66.80;;;;;;4957389;28;20187;-89
2023/03/17 00:23:01;;;;;;;16.17;14.87;;;5.40;66.50;;;;;;4957065;28;20750;-90
2023/03/17 00:25:28;;;;;;;17.07;15.70;;;5.40;66.90;;;;;;4957237;28;20575;-89
2023/03/17 00:27:57;;;;;;;16.63;15.13;;;5.40;67.20;;;;;;4957516;28;20186;-89
2023/03/17 00:30:23;;;;;;;16.33;15.00;;;5.40;67.20;;;;;;4957191;28;20171;-88
2023/03/17 00:32:51;;;;;;;15.93;14.90;;;5.30;67.30;;;;;;4958132;28;20541;-88
2023/03/17 00:35:23;;;;;;;16.23;14.93;;;5.40;67.30;;;;;;4957229;28;20198;-88
2023/03/17 00:37:52;;;;;;;18.70;17.23;;;5.30;67.60;;;;;;4957084;28;20182;-88
2023/03/17 00:40:23;;;;;;;16.67;15.47;;;5.30;67.50;;;;;;4974456;28;20177;-88
2023/03/17 00:42:51;;;;;;;17.10;16.00;;;5.30;67.70;;;;;;4957119;28;20277;-88
2023/03/17 00:45:17;;;;;;;16.50;15.40;;;5.30;68.20;;;;;;4977645;28;20190;-88
2023/03/17 00:47:44;;;;;;;17.17;15.97;;;5.20;67.90;;;;;;4961023;28;20261;-88
2023/03/17 00:50:16;;;;;;;16.67;15.57;;;5.20;67.90;;;;;;4961070;28;20194;-88
2023/03/17 00:52:43;;;;;;;16.63;15.33;;;5.20;68.00;;;;;;4961025;28;20237;-89
2023/03/17 00:55:09;;;;;;;16.83;15.63;;;5.10;68.20;;;;;;4978024;28;20197;-88
2023/03/17 00:57:37;;;;;;;16.53;15.43;;;5.00;67.90;;;;;;4978279;28;20186;-88
2023/03/17 01:00:05;;;;;;;17.27;15.87;;;5.00;68.00;;;;;;4961240;28;20190;-88
2023/03/17 01:02:31;;;;;;;16.60;15.47;;;5.00;67.90;;;;;;4960666;28;20214;-88
2023/03/17 01:04:57;;;;;;;16.80;15.47;;;5.00;67.90;;;;;;4960613;28;20204;-89
2023/03/17 01:07:23;;;;;;;16.33;15.17;;;5.00;67.90;;;;;;4977969;28;20167;-88
2023/03/17 01:09:49;;;;;;;16.83;15.53;;;4.90;67.90;;;;;;4977949;28;20174;-89
2023/03/17 01:12:15;;;;;;;16.97;15.60;;;4.90;68.10;;;;;;4977910;28;20175;-89
2023/03/17 01:14:40;;;;;;;16.80;15.50;;;4.90;68.10;;;;;;4960900;28;20201;-90
2023/03/17 01:17:14;;;;;;;17.10;15.80;;;4.90;68.10;;;;;;4960550;28;20186;-90
2023/03/17 01:19:39;;;;;;;16.90;15.73;;;4.90;68.20;;;;;;4960486;28;20641;-89
2023/03/17 01:22:05;;;;;;;16.83;15.63;;;4.90;68.20;;;;;;4960444;28;20209;-90
2023/03/17 01:24:30;;;;;;;17.03;15.63;;;4.90;68.00;;;;;;4977493;28;20202;-89
2023/03/17 01:26:56;;;;;;;16.53;15.43;;;4.80;68.10;;;;;;4960348;28;20259;-89
2023/03/17 01:29:22;;;;;;;16.50;15.40;;;4.80;68.30;;;;;;4960730;28;20200;-88
2023/03/17 01:31:47;;;;;;;15.53;14.53;;;4.80;68.50;;;;;;4977511;28;20179;-88
2023/03/17 01:34:13;;;;;;;16.47;15.37;;;4.80;68.60;;;;;;4977319;28;20714;-88
2023/03/17 01:36:40;;;;;;;17.07;15.97;;;4.70;68.80;;;;;;4977401;28;20197;-88
2023/03/17 01:39:06;;;;;;;17.40;16.10;;;4.70;69.00;;;;;;4977621;28;20171;-88
2023/03/17 01:41:33;;;;;;;16.67;15.43;;;4.70;69.30;;;;;;4960055;28;20189;-88
2023/03/17 01:43:59;;;;;;;16.50;15.40;;;4.70;69.30;;;;;;4959860;28;20213;-88
2023/03/17 01:46:30;;;;;;;16.10;15.07;;;4.60;69.70;;;;;;4977204;28;20178;-88
2023/03/17 01:49:28;;;;;;;16.37;14.97;;;4.50;70.10;;;;;;4959838;28;20163;-88
2023/03/17 01:52:03;;;;;;;16.43;15.13;;;4.40;70.40;;;;;;4977743;28;20510;-88
2023/03/17 01:55:06;;;;;;;15.73;14.53;;;4.50;70.70;;;;;;4959592;28;20625;-88
2023/03/17 01:57:38;;;;;;;17.57;15.80;;;4.50;70.60;;;;;;4960281;28;20173;-88
2023/03/17 02:00:05;;;;;;;16.20;15.10;;;4.50;70.70;;;;;;4977286;28;20151;-88
2023/03/17 02:02:36;;;;;;;16.17;14.90;;;4.50;70.60;;;;;;4959902;28;20634;-88
2023/03/17 02:05:05;;;;;;;16.30;15.10;;;4.60;70.80;;;;;;4959558;28;20205;-89
2023/03/17 02:07:30;;;;;;;16.20;15.00;;;4.60;70.50;;;;;;4959882;28;20676;-89
2023/03/17 02:09:57;;;;;;;15.90;14.80;;;4.60;70.60;;;;;;4959595;28;20182;-89
2023/03/17 02:12:25;;;;;;;16.27;15.03;;;4.60;70.70;;;;;;4976743;28;20181;-88
2023/03/17 02:14:51;;;;;;;15.77;14.67;;;4.60;70.60;;;;;;4959489;28;20266;-89
2023/03/17 02:17:18;;;;;;;16.60;15.40;;;4.60;70.60;;;;;;4976610;28;20255;-89
2023/03/17 02:19:44;;;;;;;15.57;14.53;;;4.60;70.40;;;;;;4960106;28;20213;-89
2023/03/17 02:22:10;;;;;;;17.07;15.77;;;4.60;70.20;;;;;;4976697;28;20574;-89
2023/03/17 02:24:51;;;;;;;16.10;14.93;;;4.60;70.30;;;;;;4976530;28;20284;-89
2023/03/17 02:27:26;;;;;;;16.60;15.23;;;4.60;70.10;;;;;;4976521;28;20162;-89
2023/03/17 02:29:52;;;;;;;16.80;15.70;;;4.70;70.20;;;;;;4959732;28;20190;-88
2023/03/17 02:32:18;;;;;;;17.17;15.87;;;4.70;70.80;;;;;;4976457;28;20294;-89
2023/03/17 02:34:45;;;;;;;16.07;14.97;;;4.70;71.40;;;;;;4976381;28;20280;-88
2023/03/17 02:37:11;;;;;;;15.57;14.57;;;4.70;71.50;;;;;;4976332;28;20181;-89
2023/03/17 02:39:37;;;;;;;16.07;14.93;;;4.50;71.20;;;;;;4959520;28;20265;-89
2023/03/17 02:42:04;;;;;;;15.93;14.80;;;4.60;71.40;;;;;;4958920;28;20224;-89
2023/03/17 02:44:30;;;;;;;16.63;15.43;;;4.60;71.30;;;;;;4958704;28;20202;-89
2023/03/17 02:46:56;;;;;;;17.10;15.33;;;4.50;71.40;;;;;;4976889;28;20178;-89
2023/03/17 02:49:22;;;;;;;16.07;15.07;;;4.60;71.30;;;;;;4959039;28;20175;-89
2023/03/17 02:51:48;;;;;;;17.23;15.60;;;4.60;71.40;;;;;;4958681;28;20236;-89
2023/03/17 02:54:13;;;;;;;15.93;14.90;;;4.60;71.40;;;;;;4958618;28;20684;-89
2023/03/17 02:56:39;;;;;;;16.23;15.10;;;4.60;71.60;;;;;;4976154;28;20685;-89
2023/03/17 02:59:06;;;;;;;16.93;15.73;;;4.70;71.70;;;;;;4958622;28;20198;-88
2023/03/17 03:01:32;;;;;;;17.17;16.00;;;4.70;72.20;;;;;;4975804;28;20221;-89
2023/03/17 03:03:58;;;;;;;16.30;15.13;;;4.70;72.50;;;;;;4959209;28;20305;-89
2023/03/17 03:06:24;;;;;;;16.40;15.20;;;4.60;72.40;;;;;;4958478;28;20210;-89
2023/03/17 03:08:50;;;;;;;17.33;15.70;;;4.60;72.50;;;;;;4958463;28;20531;-89
2023/03/17 03:11:15;;;;;;;15.80;14.77;;;4.60;72.40;;;;;;4975715;28;20178;-89
2023/03/17 03:13:41;;;;;;;15.87;14.83;;;4.60;72.50;;;;;;4975582;28;20325;-89
2023/03/17 03:16:07;;;;;;;15.60;14.60;;;4.60;72.20;;;;;;4958350;28;20175;-89
2023/03/17 03:18:33;;;;;;;14.97;14.00;;;4.60;72.10;;;;;;4958523;28;20185;-89
2023/03/17 03:20:59;;;;;;;15.37;14.17;;;4.70;72.20;;;;;;4958036;28;20178;-89
2023/03/17 03:23:24;;;;;;;15.90;14.80;;;4.70;71.80;;;;;;4958032;28;20229;-89
2023/03/17 03:25:50;;;;;;;15.97;14.77;;;4.80;71.70;;;;;;4958236;28;20216;-89
2023/03/17 03:28:15;;;;;;;16.43;15.23;;;4.80;71.70;;;;;;4975438;28;20565;-89
2023/03/17 03:30:43;;;;;;;16.57;15.37;;;4.70;72.20;;;;;;4958147;28;20207;-88
2023/03/17 03:33:10;;;;;;;17.37;15.97;;;4.80;72.60;;;;;;4958178;28;20205;-89
2023/03/17 03:35:35;;;;;;;17.40;16.20;;;4.70;72.80;;;;;;4957987;28;20185;-89
2023/03/17 03:38:01;;;;;;;16.73;15.63;;;4.70;73.00;;;;;;4975175;28;20182;-89
2023/03/17 03:40:27;;;;;;;17.17;15.97;;;4.60;73.00;;;;;;4975209;28;20178;-89
2023/03/17 03:42:53;;;;;;;16.30;15.20;;;4.60;73.10;;;;;;4975264;28;20209;-89
2023/03/17 03:45:18;;;;;;;16.33;15.33;;;4.60;73.10;;;;;;4975108;28;20692;-89
2023/03/17 03:47:44;;;;;;;16.80;15.60;;;4.60;73.10;;;;;;4975288;28;20646;-89
2023/03/17 03:50:10;;;;;;;16.50;15.23;;;4.60;73.00;;;;;;4975679;28;20189;-89
2023/03/17 03:52:36;;;;;;;15.87;14.70;;;4.60;72.70;;;;;;4974957;28;20187;-89
2023/03/17 03:55:01;;;;;;;17.03;15.60;;;4.60;72.60;;;;;;4974794;28;20213;-89
2023/03/17 03:57:27;;;;;;;16.47;15.30;;;4.60;72.60;;;;;;4974895;28;20182;-89
2023/03/17 03:59:52;;;;;;;16.63;15.27;;;4.60;72.50;;;;;;4975104;28;20174;-89
2023/03/17 04:02:18;;;;;;;16.53;15.27;;;4.60;72.40;;;;;;4974676;28;20206;-89
2023/03/17 04:04:44;;;;;;;16.47;15.17;;;4.50;72.50;;;;;;4974988;28;20194;-90
2023/03/17 04:07:09;;;;;;;16.40;15.23;;;4.50;72.60;;;;;;4974709;28;20199;-89
2023/03/17 04:09:36;;;;;;;16.47;15.30;;;4.50;73.00;;;;;;4957982;28;20179;-89
2023/03/17 04:12:02;;;;;;;16.23;14.80;;;4.40;73.10;;;;;;4957428;28;20182;-89
2023/03/17 04:14:27;;;;;;;17.20;16.10;;;4.40;73.00;;;;;;4957275;28;20201;-89
2023/03/17 04:16:53;;;;;;;17.03;15.73;;;4.40;73.30;;;;;;4974722;28;20175;-89
2023/03/17 04:19:20;;;;;;;16.47;15.17;;;4.50;73.10;;;;;;4974187;28;20178;-89
2023/03/17 04:21:46;;;;;;;16.20;15.10;;;4.50;72.90;;;;;;4974633;28;20660;-89
2023/03/17 04:24:12;;;;;;;15.90;14.90;;;4.50;72.90;;;;;;4957156;28;20222;-89
2023/03/17 04:26:38;;;;;;;16.67;15.27;;;4.50;72.90;;;;;;4974576;28;20171;-89
2023/03/17 04:29:03;;;;;;;15.93;14.73;;;4.50;72.90;;;;;;4974527;28;20230;-89
2023/03/17 04:31:29;;;;;;;16.17;14.97;;;4.50;72.90;;;;;;4974451;28;20193;-89
2023/03/17 04:33:55;;;;;;;16.00;15.00;;;4.50;72.90;;;;;;4957430;28;20194;-89
2023/03/17 04:36:22;;;;;;;16.57;15.37;;;4.50;73.00;;;;;;4974307;28;20182;-89
2023/03/17 04:38:48;;;;;;;17.27;16.00;;;4.50;73.10;;;;;;4974626;28;20173;-89
2023/03/17 04:41:14;;;;;;;17.37;16.20;;;4.60;73.10;;;;;;4974332;28;20178;-89
2023/03/17 04:43:40;;;;;;;17.20;16.00;;;4.60;73.10;;;;;;4974203;28;20206;-89
2023/03/17 04:46:07;;;;;;;18.33;16.67;;;4.60;73.20;;;;;;4974295;28;20173;-89
2023/03/17 04:48:32;;;;;;;17.77;16.33;;;4.60;73.50;;;;;;4974346;28;20727;-88
2023/03/17 04:50:58;;;;;;;18.40;17.10;;;4.60;73.50;;;;;;4974200;28;20216;-89
2023/03/17 04:53:23;;;;;;;17.53;16.33;;;4.60;73.50;;;;;;4957771;28;20193;-89
2023/03/17 04:55:49;;;;;;;18.03;16.73;;;4.60;73.50;;;;;;4974195;28;20229;-89
2023/03/17 04:58:14;;;;;;;17.90;16.60;;;4.60;73.50;;;;;;4974172;28;20210;-89
2023/03/17 05:00:40;;;;;;;18.13;16.73;;;4.50;73.60;;;;;;4957173;28;20233;-89
2023/03/17 05:03:06;;;;;;;17.50;16.23;;;4.60;73.50;;;;;;4957107;28;20199;-90
2023/03/17 05:05:33;;;;;;;17.33;16.13;;;4.60;73.50;;;;;;4974542;28;20189;-90
2023/03/17 05:07:58;;;;;;;16.57;15.47;;;4.60;73.50;;;;;;4974174;28;20541;-90
2023/03/17 05:10:24;;;;;;;16.37;15.00;;;4.60;73.70;;;;;;4974161;28;20253;-90
2023/03/17 05:12:50;;;;;;;17.20;15.90;;;4.60;73.60;;;;;;4956943;28;20586;-90
2023/03/17 05:15:16;;;;;;;18.10;16.20;;;4.60;73.60;;;;;;4956737;28;20202;-90
2023/03/17 05:17:42;;;;;;;18.30;17.10;;;4.60;73.70;;;;;;4974119;28;20181;-90
2023/03/17 05:20:09;;;;;;;18.27;16.90;;;4.50;73.80;;;;;;4956877;28;20669;-89
2023/03/17 05:22:35;;;;;;;17.37;16.07;;;4.40;74.00;;;;;;4973975;28;20290;-90
2023/03/17 05:25:01;;;;;;;18.03;16.63;;;4.40;74.10;;;;;;4956895;28;20253;-90
2023/03/17 05:27:27;;;;;;;19.70;17.67;;;4.30;74.20;;;;;;4973975;28;20171;-90
2023/03/17 05:29:52;;;;;;;18.43;16.73;;;4.40;74.20;;;;;;4956853;28;20661;-90
2023/03/17 05:32:18;;;;;;;18.33;16.83;;;4.40;74.40;;;;;;4976908;28;20298;-90
2023/03/17 05:34:45;;;;;;;17.87;16.37;;;4.40;74.50;;;;;;4960128;28;20241;-89
2023/03/17 05:37:10;;;;;;;18.13;16.73;;;4.40;74.70;;;;;;4960047;28;20269;-90
2023/03/17 05:39:36;;;;;;;18.60;17.10;;;4.30;74.60;;;;;;4977397;28;20265;-90
2023/03/17 05:42:02;;;;;;;17.60;16.37;;;4.30;74.80;;;;;;4977254;28;20193;-90
2023/03/17 05:44:27;;;;;;;17.90;16.60;;;4.40;74.90;;;;;;4959871;28;20278;-90
2023/03/17 05:46:54;;;;;;;17.63;16.13;;;4.40;75.20;;;;;;4977182;28;20182;-90
2023/03/17 05:49:20;;;;;;;18.33;16.83;;;4.40;75.30;;;;;;4961095;28;20189;-89
2023/03/17 05:51:46;;;;;;;21.30;16.93;;;4.30;75.30;;;;;;4960461;28;20183;-90
2023/03/17 05:54:11;;;;;;;17.43;16.13;;;4.40;75.40;;;;;;4977105;28;20301;-90
2023/03/17 05:56:37;;;;;;;17.67;16.03;;;4.30;75.40;;;;;;4977084;28;20186;-90
2023/03/17 05:59:03;;;;;;;16.67;15.40;;;4.40;75.40;;;;;;4959722;28;20648;-90
2023/03/17 06:01:30;;;;;;;16.23;15.13;;;4.40;75.10;;;;;;4976915;28;20204;-90
2023/03/17 06:03:55;;;;;;;16.97;15.57;;;4.50;75.10;;;;;;4976817;28;20581;-90
2023/03/17 06:06:23;;;;;;;17.20;15.70;;;4.50;75.00;;;;;;4976960;28;20203;-89
2023/03/17 06:08:49;;;;;;;17.07;15.87;;;4.50;74.90;;;;;;4976912;28;20178;-89
2023/03/17 06:11:14;;;;;;;17.83;15.93;;;4.60;75.00;;;;;;4976832;28;20173;-90
2023/03/17 06:13:40;;;;;;;17.90;16.37;;;4.60;74.80;;;;;;4960024;28;20718;-89
2023/03/17 06:16:06;;;;;;;16.70;15.40;;;4.60;74.90;;;;;;4977133;28;20193;-91
2023/03/17 06:18:32;;;;;;;16.83;15.63;;;4.70;74.80;;;;;;4959957;28;20186;-89
2023/03/17 06:20:57;;;;;;;17.13;15.93;;;4.70;74.80;;;;;;4959414;28;20232;-90
2023/03/17 06:23:23;;;;;;;18.63;16.17;;;4.70;74.80;;;;;;4976772;28;20201;-90
2023/03/17 06:25:49;;;;;;;16.97;15.13;;;4.70;74.90;;;;;;4976543;28;20679;-90
2023/03/17 06:28:15;;;;;;;17.37;15.80;;;4.80;74.70;;;;;;4959345;28;20725;-89
2023/03/17 06:30:41;;;;;;;19.90;16.73;;;4.80;74.60;;;;;;4959206;28;20257;-90
2023/03/17 06:33:06;;;;;;;19.37;17.30;;;4.90;74.50;;;;;;4959120;28;20326;-89
2023/03/17 06:35:32;;;;;;;17.30;15.90;;;4.90;74.60;;;;;;4976304;28;20685;-90
2023/03/17 06:37:59;;;;;;;17.67;16.33;;;5.00;74.90;;;;;;4976292;28;20174;-89
2023/03/17 06:40:25;;;;;;;18.33;17.03;;;5.10;74.90;;;;;;4958999;28;20192;-90
2023/03/17 06:42:51;;;;;;;18.63;17.00;;;5.10;75.10;;;;;;4975887;28;20210;-90
2023/03/17 06:45:17;;;;;;;19.00;17.50;;;5.00;75.00;;;;;;4976370;28;20583;-89
2023/03/17 06:47:42;;;;;;;19.80;18.00;;;5.00;75.20;;;;;;4958873;28;20615;-89
2023/03/17 06:50:10;;;;;;;18.27;16.87;;;5.10;75.10;;;;;;4976144;28;20174;-89
2023/03/17 06:52:36;;;;;;;18.47;17.10;;;5.20;75.00;;;;;;4976073;28;20185;-89
2023/03/17 06:55:02;;;;;;;19.87;18.10;;;5.10;74.60;;;;;;4958776;28;20207;-90
2023/03/17 06:57:27;;;;;;;18.60;17.20;;;5.20;74.60;;;;;;4976024;28;20249;-89
2023/03/17 06:59:53;;;;;;;18.47;17.17;;;5.10;74.50;;;;;;4958660;28;20189;-89
2023/03/17 07:02:19;;;;;;;18.93;17.33;;;5.20;74.50;;;;;;4958626;28;20298;-90
2023/03/17 07:04:44;;;;;;;18.50;17.13;;;5.20;74.30;;;;;;4976350;28;20743;-89
2023/03/17 07:07:10;;;;;;;18.50;16.90;;;5.20;74.10;;;;;;4976021;28;20693;-89
2023/03/17 07:09:36;;;;;;;19.17;17.47;;;5.30;74.30;;;;;;4958457;28;20183;-90
2023/03/17 07:12:03;;;;;;;18.20;16.43;;;5.30;74.00;;;;;;4975732;28;20233;-89
2023/03/17 07:14:34;;;;;;;18.80;16.83;;;5.30;74.10;;;;;;4958319;28;20197;-90
2023/03/17 07:17:00;;;;;;;17.47;16.17;;;5.40;74.00;;;;;;4958436;28;20170;-90
2023/03/17 07:19:26;;;;;;;17.20;15.70;;;5.40;73.80;;;;;;4975594;28;20182;-90
2023/03/17 07:21:54;;;;;;;17.17;15.63;;;5.40;73.80;;;;;;4975508;28;20171;-89
2023/03/17 07:24:20;;;;;;;16.93;15.63;;;5.50;73.60;;;;;;4958178;28;20214;-89
2023/03/17 07:26:46;;;;;;;18.33;16.83;;;5.50;73.50;;;;;;4958129;28;20244;-90
2023/03/17 07:29:13;;;;;;;17.00;15.60;;;5.60;73.50;;;;;;4957997;28;20190;-90
2023/03/17 07:31:38;;;;;;;17.13;15.40;;;5.60;73.30;;;;;;4958109;28;20183;-89
2023/03/17 07:34:05;;;;;;;18.20;16.73;;;5.70;73.50;;;;;;4975243;28;20187;-89
2023/03/17 07:36:32;;;;;;;18.10;16.70;;;5.80;73.40;;;;;;4975273;28;20218;-89
2023/03/17 07:38:57;;;;;;;18.30;16.83;;;5.90;73.20;;;;;;4975183;28;20183;-89
2023/03/17 07:41:23;;;;;;;18.83;17.53;;;6.00;72.90;;;;;;4975231;28;20226;-90
2023/03/17 07:43:49;;;;;;;19.33;17.63;;;6.00;72.70;;;;;;4957809;28;20222;-89
2023/03/17 07:46:15;;;;;;;19.00;17.70;;;5.90;72.50;;;;;;4975054;28;20170;-90
2023/03/17 07:48:42;;;;;;;19.53;18.23;;;5.90;72.80;;;;;;4975418;28;20175;-89
2023/03/17 07:51:14;;;;;;;19.70;18.20;;;5.90;72.70;;;;;;4957728;28;20178;-89
2023/03/17 07:53:40;;;;;;;19.60;18.23;;;6.00;72.60;;;;;;4956991;28;20205;-89
2023/03/17 07:56:06;;;;;;;17.83;16.23;;;6.00;73.00;;;;;;4975019;28;20257;-89
2023/03/17 07:58:32;;;;;;;17.47;16.07;;;6.20;73.30;;;;;;4974873;28;20170;-90
2023/03/17 08:00:58;;;;;;;18.77;17.20;;;6.20;73.30;;;;;;4974932;28;20601;-89
2023/03/17 08:03:23;;;;;;;17.80;16.13;;;6.30;73.30;;;;;;4957646;28;20616;-88
2023/03/17 08:05:54;;;;;;;17.70;16.40;;;6.50;73.40;;;;;;4974883;28;20213;-89
2023/03/17 08:08:21;;;;;;;19.53;17.17;;;6.80;73.10;;;;;;4957440;28;20187;-89
2023/03/17 08:10:47;;;;;;;18.77;17.37;;;7.00;72.50;;;;;;4957306;28;20186;-88
2023/03/17 08:13:13;;;;;;;18.23;16.93;;;7.00;72.60;;;;;;4957680;28;20594;-88
2023/03/17 08:15:38;;;;;;;19.13;17.50;;;7.20;71.80;;;;;;4957341;28;20198;-89
2023/03/17 08:18:04;;;;;;;19.60;18.00;;;7.30;71.60;;;;;;4957266;28;20182;-89
2023/03/17 08:20:30;;;;;;;19.30;17.93;;;7.30;71.70;;;;;;4957596;28;20644;-89
2023/03/17 08:22:56;;;;;;;19.20;17.67;;;7.50;71.60;;;;;;4974568;28;20245;-89
2023/03/17 08:25:22;;;;;;;20.07;18.30;;;7.60;70.60;;;;;;4974880;28;20195;-89
2023/03/17 08:27:47;;;;;;;19.70;18.03;;;7.70;70.00;;;;;;4957454;28;20179;-89
2023/03/17 08:30:15;;;;;;;21.03;18.90;;;7.80;69.90;;;;;;4957256;28;20537;-89
2023/03/17 08:32:41;;;;;;;18.90;17.43;;;8.00;69.30;;;;;;4957150;28;20183;-89
2023/03/17 08:35:11;;;;;;;20.53;18.73;;;8.20;68.90;;;;;;4957529;28;20289;-89
2023/03/17 08:37:36;;;;;;;20.80;19.13;;;8.40;69.30;;;;;;4974682;28;20553;-89
2023/03/17 08:40:04;;;;;;;19.37;18.00;;;8.60;68.50;;;;;;4957183;28;20179;-89
2023/03/17 08:42:30;;;;;;;19.60;18.10;;;8.70;68.40;;;;;;4957849;28;20269;-89
2023/03/17 08:44:56;;;;;;;20.27;18.67;;;8.70;67.10;;;;;;4956938;28;20680;-89
2023/03/17 08:47:22;;;;;;;18.93;17.63;;;8.80;67.00;;;;;;4957061;28;20207;-88
2023/03/17 08:49:48;;;;;;;19.67;18.17;;;8.70;66.20;;;;;;4957096;28;20229;-88
2023/03/17 08:52:15;;;;;;;20.47;18.83;;;8.80;66.50;;;;;;4957031;28;20187;-88
2023/03/17 08:54:41;;;;;;;19.33;17.93;;;8.80;67.60;;;;;;4974213;28;20194;-88
2023/03/17 08:57:06;;;;;;;19.87;18.30;;;8.80;66.90;;;;;;4956974;28;20624;-89
2023/03/17 08:59:32;;;;;;;19.77;18.10;;;8.80;66.90;;;;;;4956988;28;20206;-89
2023/03/17 09:01:58;;;;;;;20.03;18.53;;;9.00;66.10;;;;;;4974412;28;20246;-88
2023/03/17 09:04:24;;;;;;;19.37;17.97;;;9.10;66.60;;;;;;4974544;28;20212;-89
2023/03/17 09:06:50;;;;;;;20.27;18.77;;;9.20;66.40;;;;;;4960788;28;20229;-89
2023/03/17 09:09:16;;;;;;;20.10;18.50;;;9.50;66.30;;;;;;4960713;28;20653;-88
2023/03/17 09:11:42;;;;;;;19.90;18.20;;;9.70;66.20;;;;;;4960751;28;20171;-88
2023/03/17 09:14:08;;;;;;;19.93;18.47;;;9.90;65.10;;;;;;4961347;28;20194;-88
2023/03/17 09:16:34;;;;;;;19.73;18.13;;;9.90;64.20;;;;;;4960535;28;20178;-87
2023/03/17 09:19:00;;;;;;;19.90;18.20;;;10.00;64.20;;;;;;4960799;28;20182;-88
2023/03/17 09:21:26;;;;;;;20.60;19.00;;;10.00;64.60;;;;;;4961894;28;20183;-89
2023/03/17 09:23:52;;;;;;;20.27;18.80;;;10.00;63.20;;;;;;4960464;28;20582;-88
2023/03/17 09:26:19;;;;;;;19.03;17.63;;;10.10;64.10;;;;;;4977834;28;20250;-88
2023/03/17 09:28:44;;;;;;;18.70;17.40;;;10.30;65.10;;;;;;4960304;28;20191;-88
2023/03/17 09:31:11;;;;;;;17.73;16.33;;;10.40;63.40;;;;;;4960428;28;20281;-89
2023/03/17 09:33:40;;;;;;;17.37;16.27;;;10.70;61.20;;;;;;4960680;28;20226;-89
2023/03/17 09:36:07;;;;;;;18.37;17.00;;;10.90;61.70;;;;;;4977771;28;20173;-88
2023/03/17 09:38:33;;;;;;;17.17;15.70;;;10.90;63.20;;;;;;4960667;28;20241;-88
2023/03/17 09:41:19;;;;;;;17.27;15.97;;;11.00;61.40;;;;;;4960297;28;20183;-87
2023/03/17 09:44:03;;;;;;;18.97;17.47;;;11.10;62.00;;;;;;4977468;28;20210;-88
2023/03/17 09:46:38;;;;;;;19.13;17.63;;;11.30;60.20;;;;;;4960662;28;20178;-88
2023/03/17 09:49:21;;;;;;;19.97;18.27;;;11.50;60.50;;;;;;4960167;28;20163;-88
2023/03/17 09:51:48;;;;;;;20.50;18.80;;;11.80;58.80;;;;;;4960476;28;20237;-88
2023/03/17 09:54:36;;;;;;;18.90;17.60;;;11.90;59.60;;;;;;4960664;28;20205;-88
2023/03/17 09:57:34;;;;;;;19.80;18.30;;;12.00;58.80;;;;;;4977128;28;20158;-88
2023/03/17 10:00:15;;;;;;;19.80;18.17;;;12.10;58.10;;;;;;4951205;28;20187;-87
2023/03/17 10:02:42;;;;;;;19.67;18.00;;;12.20;57.50;;;;;;4977053;28;20592;-88
2023/03/17 10:05:23;;;;;;;19.37;17.97;;;12.30;58.10;;;;;;4959544;28;20202;-88
2023/03/17 10:07:56;;;;;;;19.90;18.30;;;12.40;56.70;;;;;;4959605;28;20178;-88
2023/03/17 10:10:37;;;;;;;20.07;18.37;;;12.20;56.90;;;;;;4959917;28;20175;-89
2023/03/17 10:13:51;;;;;;;19.07;17.67;;;12.10;56.70;;;;;;4959564;28;20163;-88
2023/03/17 10:16:34;;;;;;;19.37;18.07;;;11.90;58.10;;;;;;4929461;28;20187;-88
2023/03/17 10:19:15;;;;;;;19.83;18.33;;;11.70;56.90;;;;;;4959587;28;20194;-88
2023/03/17 10:21:52;;;;;;;20.80;19.17;;;11.80;58.20;;;;;;4959909;28;20171;-88
2023/03/17 10:24:19;;;;;;;19.50;18.00;;;11.80;57.80;;;;;;4959779;28;20210;-88
2023/03/17 10:26:49;;;;;;;20.37;18.87;;;11.90;59.00;;;;;;4959641;28;20171;-87
2023/03/17 10:29:17;;;;;;;20.10;18.47;;;11.90;58.30;;;;;;4959132;28;20191;-87
2023/03/17 10:31:43;;;;;;;21.07;19.17;;;11.90;59.00;;;;;;4976516;28;20253;-88
2023/03/17 10:34:18;;;;;;;20.50;18.93;;;12.00;58.80;;;;;;4959158;28;20206;-88
2023/03/17 10:37:00;;;;;;;21.00;19.13;;;12.10;58.20;;;;;;4959155;28;20171;-88
2023/03/17 10:39:26;;;;;;;20.40;18.67;;;12.30;57.80;;;;;;4976394;28;20163;-88
2023/03/17 10:41:54;;;;;;;20.40;18.90;;;12.50;57.20;;;;;;4959042;28;20217;-88
2023/03/17 10:44:41;;;;;;;21.17;19.37;;;12.70;57.10;;;;;;4976162;28;20800;-87
2023/03/17 10:47:23;;;;;;;20.33;18.67;;;12.80;55.50;;;;;;4958555;28;20183;-86
2023/03/17 10:49:50;;;;;;;19.87;18.27;;;12.90;54.90;;;;;;4959702;28;20253;-87
2023/03/17 10:52:21;;;;;;;20.77;18.97;;;13.20;55.30;;;;;;4958780;28;20179;-86
2023/03/17 10:54:50;;;;;;;20.70;19.20;;;13.40;54.90;;;;;;4958746;28;20190;-86
2023/03/17 10:57:17;;;;;;;20.40;18.73;;;13.40;53.10;;;;;;4958837;28;20529;-86
2023/03/17 10:59:49;;;;;;;19.43;18.03;;;13.70;53.80;;;;;;4958635;28;20174;-86
2023/03/17 11:02:18;;;;;;;19.20;17.70;;;13.80;51.80;;;;;;4975924;28;20160;-87
2023/03/17 11:04:43;;;;;;;19.10;17.80;;;13.90;53.90;;;;;;4958543;28;20276;-87
2023/03/17 11:07:18;;;;;;;19.17;17.73;;;13.80;54.00;;;;;;4958502;28;20212;-88
2023/03/17 11:09:49;;;;;;;19.77;18.27;;;14.00;52.20;;;;;;4975703;28;20166;-87
2023/03/17 11:12:26;;;;;;;18.00;16.67;;;14.10;52.60;;;;;;4958529;28;20592;-87
2023/03/17 11:15:04;;;;;;;18.83;17.43;;;14.00;52.80;;;;;;4958378;28;20202;-87
2023/03/17 11:17:59;;;;;;;18.50;17.10;;;14.10;52.40;;;;;;4958280;28;20178;-87
2023/03/17 11:20:29;;;;;;;18.43;17.10;;;14.00;52.60;;;;;;4975547;28;20167;-87
2023/03/17 11:23:01;;;;;;;18.47;16.93;;;13.80;52.10;;;;;;4958057;28;20431;-87
2023/03/17 11:25:28;;;;;;;19.83;18.20;;;13.90;53.10;;;;;;4958066;28;20202;-87
2023/03/17 11:28:15;;;;;;;18.63;17.10;;;14.00;51.60;;;;;;4957413;28;20226;-87
2023/03/17 11:31:18;;;;;;;17.90;16.50;;;14.10;50.70;;;;;;4958154;28;20208;-87
2023/03/17 11:33:53;;;;;;;18.60;17.20;;;14.00;52.00;;;;;;4942706;28;20692;-87
2023/03/17 11:36:50;;;;;;;17.80;16.23;;;13.90;51.80;;;;;;4975536;28;20174;-86
2023/03/17 11:39:24;;;;;;;18.70;17.30;;;14.10;53.90;;;;;;4957909;28;20171;-87
2023/03/17 11:42:27;;;;;;;18.43;16.80;;;14.30;51.80;;;;;;4958065;28;20186;-87
2023/03/17 11:45:08;;;;;;;17.33;16.10;;;14.40;50.70;;;;;;4958274;28;20241;-87
2023/03/17 11:47:56;;;;;;;21.08;19.00;;;14.40;52.50;;;;;;4957993;28;20195;-88
2023/03/17 11:50:52;;;;;;;19.48;17.80;;;14.60;50.90;;;;;;4957755;28;20173;-88
2023/03/17 11:53:36;;;;;;;18.20;16.73;;;14.70;50.60;;;;;;4974864;28;20680;-87
2023/03/17 11:56:14;;;;;;;18.23;16.73;;;14.80;51.50;;;;;;4957767;28;20170;-88
2023/03/17 11:58:47;;;;;;;18.63;17.10;;;14.90;51.00;;;;;;4957689;28;20607;-88
2023/03/17 12:01:16;;;;;;;17.10;15.82;;;14.90;51.10;;;;;;4958477;28;20174;-87
2023/03/17 12:03:46;;;;;;;17.88;16.10;;;15.00;50.00;;;;;;4957502;28;20213;-88
2023/03/17 12:06:25;;;;;;;17.20;15.90;;;15.00;50.00;;;;;;4957609;28;20667;-88
2023/03/17 12:09:06;;;;;;;18.60;17.20;;;15.20;51.40;;;;;;4957395;28;20257;-88
2023/03/17 12:11:38;;;;;;;17.13;15.82;;;15.40;49.30;;;;;;4957549;28;20250;-87
2023/03/17 12:14:29;;;;;;;17.08;15.88;;;15.40;50.30;;;;;;4957521;28;20198;-88
2023/03/17 12:17:08;;;;;;;19.05;17.55;;;15.70;51.40;;;;;;4946420;28;20685;-88
2023/03/17 12:19:58;;;;;;;17.17;15.90;;;16.00;50.10;;;;;;4957380;28;20612;-88
2023/03/17 12:22:32;;;;;;;17.58;16.23;;;15.90;50.40;;;;;;4957174;28;20556;-87
2023/03/17 12:25:16;;;;;;;17.50;16.15;;;15.60;48.70;;;;;;4957568;28;20194;-87
2023/03/17 12:27:55;;;;;;;17.60;15.77;;;15.80;50.60;;;;;;4974448;28;20182;-87
2023/03/17 12:30:47;;;;;;;18.65;17.25;;;15.90;49.10;;;;;;4957188;28;20178;-87
2023/03/17 12:33:12;;;;;;;17.05;15.75;;;15.60;48.00;;;;;;4957154;28;20186;-88
2023/03/17 12:35:38;;;;;;;19.08;17.58;;;15.60;48.30;;;;;;4957691;28;20178;-88
2023/03/17 12:38:19;;;;;;;18.02;16.70;;;15.70;48.10;;;;;;4957205;28;20714;-88
2023/03/17 12:41:14;;;;;;;17.75;16.10;;;15.80;48.80;;;;;;4977511;28;20161;-88
2023/03/17 12:43:54;;;;;;;17.52;16.17;;;16.10;48.20;;;;;;4948327;28;20285;-89